createdAt,value
2023-05-10T00:00:30.878Z,56.12
2023-05-10T00:05:47.314Z,56.51
2023-05-10T00:10:53.667Z,56.98
2023-05-10T00:15:58.142Z,57.39
2023-05-10T00:21:03.056Z,57.42
2023-05-10T00:26:09.106Z,57.68
2023-05-10T00:31:16.089Z,58.27
2023-05-10T00:36:21.682Z,58.29
2023-05-10T00:41:26.476Z,58.84
2023-05-10T00:46:33.085Z,58.93
2023-05-10T00:51:38.635Z,59.19
2023-05-10T00:56:50.056Z,59.59
2023-05-10T01:01:55.223Z,59.72
2023-05-10T01:07:00.787Z,60.19
2023-05-10T01:12:08.654Z,60.46
2023-05-10T01:17:13.982Z,60.69
2023-05-10T01:22:47.530Z,61.27
2023-05-10T01:28:14.536Z,61.70
2023-05-10T01:33:38.955Z,62.01
2023-05-10T01:38:53.520Z,62.34
2023-05-10T01:44:27.237Z,62.59
2023-05-10T01:49:34.184Z,63.08
2023-05-10T01:54:40.573Z,63.41
2023-05-10T01:59:47.245Z,63.49
2023-05-10T02:04:53.050Z,63.81
2023-05-10T02:09:58.100Z,64.03
2023-05-10T02:15:03.709Z,64.50
2023-05-10T02:20:10.081Z,64.77
2023-05-10T02:25:17.067Z,65.00
2023-05-10T02:30:21.381Z,65.20
2023-05-10T02:35:34.756Z,65.70
2023-05-10T02:40:39.424Z,66.06
2023-05-10T02:45:45.232Z,66.13
2023-05-10T02:50:52.701Z,66.32
2023-05-10T02:56:00.689Z,66.46
2023-05-10T03:01:08.953Z,66.72
2023-05-10T03:06:13.034Z,66.89
2023-05-10T03:11:41.525Z,67.24
2023-05-10T03:16:58.913Z,67.53
2023-05-10T03:22:10.447Z,67.75
2023-05-10T03:27:16.138Z,68.04
2023-05-10T03:32:21.037Z,68.24
2023-05-10T03:37:26.268Z,68.25
2023-05-10T03:42:32.027Z,68.37
2023-05-10T03:47:37.313Z,68.10
2023-05-10T03:52:42.487Z,68.26
2023-05-10T03:57:47.763Z,68.18
2023-05-10T04:02:52.341Z,68.45
2023-05-10T04:07:59.098Z,67.63
2023-05-10T04:13:03.248Z,65.93
2023-05-10T04:18:08.806Z,64.81
2023-05-10T04:23:16.101Z,63.60
2023-05-10T04:28:20.042Z,62.56
2023-05-10T04:33:23.774Z,61.75
2023-05-10T04:38:28.351Z,61.23
2023-05-10T04:43:32.598Z,60.17
2023-05-10T04:48:37.701Z,59.02
2023-05-10T04:53:43.017Z,57.99
2023-05-10T04:58:48.446Z,57.45
2023-05-10T05:03:54.564Z,56.78
2023-05-10T05:08:58.444Z,56.66
2023-05-10T05:14:02.316Z,57.04
2023-05-10T05:19:07.683Z,57.54
2023-05-10T05:24:13.931Z,57.78
2023-05-10T05:29:17.955Z,57.86
2023-05-10T05:34:23.791Z,58.02
2023-05-10T05:39:27.659Z,57.71
2023-05-10T05:44:31.336Z,57.59
2023-05-10T05:49:35.997Z,57.37
2023-05-10T05:54:40.183Z,57.52
2023-05-10T05:59:45.311Z,56.96
2023-05-10T06:04:48.964Z,56.79
2023-05-10T06:09:53.549Z,56.64
2023-05-10T06:14:57.686Z,56.50
2023-05-10T06:20:02.266Z,56.41
2023-05-10T06:25:06.845Z,56.55
2023-05-10T06:30:13.448Z,56.16
2023-05-10T06:35:17.828Z,55.83
2023-05-10T06:40:22.307Z,55.94
2023-05-10T06:45:26.179Z,55.62
2023-05-10T06:50:30.232Z,55.90
2023-05-10T06:55:34.029Z,55.63
2023-05-10T07:00:41.858Z,55.05
2023-05-10T07:05:48.134Z,55.02
2023-05-10T07:10:51.882Z,55.06
2023-05-10T07:15:56.460Z,54.48
2023-05-10T07:21:00.242Z,54.33
2023-05-10T07:26:04.681Z,54.20
2023-05-10T07:31:09.283Z,53.77
2023-05-10T07:36:13.756Z,54.01
2023-05-10T07:41:17.471Z,54.12
2023-05-10T07:46:21.603Z,53.70
2023-05-10T07:51:26.562Z,53.48
2023-05-10T07:56:33.201Z,53.66
2023-05-10T08:01:36.977Z,53.51
2023-05-10T08:06:41.472Z,53.29
2023-05-10T08:11:45.219Z,52.98
2023-05-10T08:16:49.070Z,53.41
2023-05-10T08:21:52.977Z,53.70
2023-05-10T08:26:56.656Z,53.06
2023-05-10T08:32:00.368Z,52.80
2023-05-10T08:37:05.054Z,52.46
2023-05-10T08:42:09.645Z,52.32
2023-05-10T08:47:14.683Z,52.12
2023-05-10T08:52:19.338Z,52.08
2023-05-10T08:57:23.993Z,52.03
2023-05-10T09:02:28.296Z,51.72
2023-05-10T09:07:34.203Z,51.31
2023-05-10T09:12:39.004Z,51.57
2023-05-10T09:17:44.071Z,51.37
2023-05-10T09:22:48.707Z,50.56
2023-05-10T09:27:53.330Z,50.82
2023-05-10T09:32:58.378Z,50.89
2023-05-10T09:38:06.906Z,50.32
2023-05-10T09:43:12.186Z,49.79
2023-05-10T09:48:16.237Z,49.59
2023-05-10T09:53:20.156Z,50.10
2023-05-10T09:58:24.952Z,49.68
2023-05-10T10:03:30.290Z,49.08
2023-05-10T10:08:34.205Z,49.17
2023-05-10T10:13:38.528Z,48.99
2023-05-10T10:18:47.212Z,48.96
2023-05-10T10:23:51.669Z,48.45
2023-05-10T10:29:03.324Z,48.29
2023-05-10T10:34:11.491Z,47.94
2023-05-10T10:39:16.462Z,47.59
2023-05-10T10:44:26.649Z,47.79
2023-05-10T10:49:39.838Z,47.71
2023-05-10T10:54:53.830Z,46.65
2023-05-10T11:00:20.132Z,47.02
2023-05-10T11:05:45.356Z,46.80
2023-05-10T11:11:08.435Z,46.22
2023-05-10T11:16:26.252Z,46.31
2023-05-10T11:21:32.230Z,46.30
2023-05-10T11:26:37.282Z,46.22
2023-05-10T11:31:46.461Z,45.94
2023-05-10T11:36:55.177Z,44.97
2023-05-10T11:42:00.771Z,45.15
2023-05-10T11:47:05.093Z,45.24
2023-05-10T11:52:10.165Z,44.70
2023-05-10T11:57:14.048Z,44.86
2023-05-10T12:02:18.588Z,43.98
2023-05-10T12:07:22.483Z,43.85
2023-05-10T12:12:26.476Z,44.17
2023-05-10T12:17:31.374Z,43.32
2023-05-10T12:22:36.291Z,43.46
2023-05-10T12:27:40.108Z,43.31
2023-05-10T12:32:45.807Z,42.88
2023-05-10T12:37:49.609Z,42.98
2023-05-10T12:42:53.968Z,42.48
2023-05-10T12:47:58.133Z,42.05
2023-05-10T12:53:01.857Z,41.78
2023-05-10T12:58:06.148Z,41.54
2023-05-10T13:03:10.027Z,41.19
2023-05-10T13:08:14.816Z,41.59
2023-05-10T13:13:19.469Z,41.21
2023-05-10T13:18:23.551Z,41.14
2023-05-10T13:23:27.578Z,40.11
2023-05-10T13:28:31.970Z,40.69
2023-05-10T13:33:35.996Z,40.49
2023-05-10T13:38:40.879Z,39.77
2023-05-10T13:43:44.577Z,39.36
2023-05-10T13:48:48.353Z,39.25
2023-05-10T13:53:53.054Z,39.44
2023-05-10T13:59:00.243Z,39.90
2023-05-10T14:04:04.779Z,39.55
2023-05-10T14:09:09.557Z,39.51
2023-05-10T14:14:14.675Z,39.68
2023-05-10T14:19:18.843Z,39.45
2023-05-10T14:24:22.567Z,39.48
2023-05-10T14:29:26.358Z,39.45
2023-05-10T14:34:31.382Z,39.09
2023-05-10T14:39:35.517Z,38.68
2023-05-10T14:44:39.311Z,39.10
2023-05-10T14:49:43.082Z,39.08
2023-05-10T14:54:46.859Z,39.13
2023-05-10T14:59:50.562Z,39.51
2023-05-10T15:04:54.887Z,39.26
2023-05-10T15:09:58.922Z,39.23
2023-05-10T15:15:03.555Z,39.09
2023-05-10T15:20:08.203Z,38.96
2023-05-10T15:25:12.085Z,39.03
2023-05-10T15:30:16.399Z,39.43
2023-05-10T15:35:20.316Z,39.40
2023-05-10T15:40:24.915Z,39.19
2023-05-10T15:45:30.450Z,38.99
2023-05-10T15:50:34.908Z,39.13
2023-05-10T15:55:38.811Z,38.98
2023-05-10T16:00:42.578Z,39.20
2023-05-10T16:05:47.138Z,39.35
2023-05-10T16:10:54.670Z,39.39
2023-05-10T16:15:59.518Z,39.31
2023-05-10T16:21:03.413Z,39.53
2023-05-10T16:26:07.868Z,39.68
2023-05-10T16:31:14.296Z,39.71
2023-05-10T16:36:18.182Z,39.87
2023-05-10T16:41:21.989Z,39.96
2023-05-10T16:46:25.839Z,40.25
2023-05-10T16:51:29.854Z,40.05
2023-05-10T16:56:33.530Z,40.10
2023-05-10T17:01:37.259Z,40.23
2023-05-10T17:06:40.936Z,40.40
2023-05-10T17:11:44.657Z,40.49
2023-05-10T17:16:48.777Z,40.66
2023-05-10T17:21:52.603Z,40.71
2023-05-10T17:26:57.665Z,40.92
2023-05-10T17:32:01.804Z,41.29
2023-05-10T17:37:06.284Z,41.35
2023-05-10T17:42:10.409Z,41.53
2023-05-10T17:47:14.219Z,41.39
2023-05-10T17:52:17.868Z,41.46
2023-05-10T17:57:21.862Z,41.59
2023-05-10T18:02:25.725Z,41.79
2023-05-10T18:07:32.725Z,41.99
2023-05-10T18:12:36.452Z,42.19
2023-05-10T18:17:40.238Z,42.77
2023-05-10T18:22:44.472Z,42.87
2023-05-10T18:27:48.574Z,43.13
2023-05-10T18:32:52.821Z,43.49
2023-05-10T18:37:56.995Z,43.81
2023-05-10T18:43:01.248Z,44.07
2023-05-10T18:48:06.603Z,44.23
2023-05-10T18:53:11.777Z,44.46
2023-05-10T18:58:15.605Z,44.90
2023-05-10T19:03:21.859Z,45.18
2023-05-10T19:08:26.455Z,45.38
2023-05-10T19:13:31.044Z,45.75
2023-05-10T19:18:35.027Z,46.16
2023-05-10T19:23:42.984Z,46.72
2023-05-10T19:28:48.852Z,46.98
2023-05-10T19:33:56.296Z,47.36
2023-05-10T19:39:01.983Z,47.84
2023-05-10T19:44:06.843Z,48.21
2023-05-10T19:49:11.416Z,48.33
2023-05-10T19:54:16.271Z,48.77
2023-05-10T19:59:21.140Z,49.04
2023-05-10T20:04:27.366Z,49.48
2023-05-10T20:09:31.432Z,50.21
2023-05-10T20:14:35.549Z,50.76
2023-05-10T20:19:40.153Z,50.99
2023-05-10T20:24:45.164Z,51.49
2023-05-10T20:29:49.016Z,51.84
2023-05-10T20:34:54.582Z,51.83
2023-05-10T20:39:59.602Z,51.99
2023-05-10T20:45:03.901Z,52.55
2023-05-10T20:50:08.343Z,52.88
2023-05-10T20:55:12.155Z,53.17
2023-05-10T21:00:16.693Z,53.51
2023-05-10T21:05:20.990Z,53.59
2023-05-10T21:10:37.295Z,53.90
2023-05-10T21:15:44.081Z,54.02
2023-05-10T21:20:47.898Z,53.99
2023-05-10T21:25:52.049Z,53.86
2023-05-10T21:30:56.347Z,54.03
2023-05-10T21:36:00.308Z,54.02
2023-05-10T21:41:09.024Z,54.45
2023-05-10T21:46:14.511Z,54.58
2023-05-10T21:51:18.540Z,54.79
2023-05-10T21:56:22.748Z,54.91
2023-05-10T22:01:27.842Z,55.02
2023-05-10T22:06:32.867Z,55.05
2023-05-10T22:11:37.278Z,55.06
2023-05-10T22:16:41.025Z,54.85
2023-05-10T22:21:44.885Z,54.93
2023-05-10T22:26:48.597Z,54.96
2023-05-10T22:31:52.268Z,55.04
2023-05-10T22:36:56.641Z,55.18
2023-05-10T22:42:00.649Z,55.32
2023-05-10T22:47:06.929Z,55.39
2023-05-10T22:52:11.608Z,55.50
2023-05-10T22:57:16.593Z,55.54
2023-05-10T23:02:20.815Z,55.70
2023-05-10T23:07:24.907Z,55.70
2023-05-10T23:12:28.668Z,55.62
2023-05-10T23:17:33.758Z,55.77
2023-05-10T23:22:38.409Z,56.03
2023-05-10T23:27:42.094Z,56.30
2023-05-10T23:32:45.837Z,56.44
2023-05-10T23:37:50.056Z,56.53
2023-05-10T23:42:54.035Z,56.64
2023-05-10T23:47:57.971Z,56.78
2023-05-10T23:53:02.252Z,56.96
2023-05-10T23:58:06.470Z,57.29
